sensor_id;sensor_type;location;lat;lon;timestamp;P1;durP1;ratioP1;P2;durP2;ratioP2
36241;SDS011;22283;42.748;12.732;2023-04-30T00:03:41;5.10;;;3.53;;
36241;SDS011;22283;42.748;12.732;2023-04-30T00:08:41;6.10;;;3.83;;
36241;SDS011;22283;42.748;12.732;2023-04-30T00:13:42;8.53;;;3.83;;
36241;SDS011;22283;42.748;12.732;2023-04-30T00:18:42;9.23;;;4.43;;
36241;SDS011;22283;42.748;12.732;2023-04-30T00:23:43;7.55;;;4.18;;
36241;SDS011;22283;42.748;12.732;2023-04-30T00:28:44;7.87;;;4.60;;
36241;SDS011;22283;42.748;12.732;2023-04-30T00:33:44;7.33;;;4.13;;
36241;SDS011;22283;42.748;12.732;2023-04-30T00:38:45;16.27;;;4.87;;
36241;SDS011;22283;42.748;12.732;2023-04-30T00:43:46;11.37;;;4.53;;
36241;SDS011;22283;42.748;12.732;2023-04-30T00:48:46;8.23;;;4.40;;
36241;SDS011;22283;42.748;12.732;2023-04-30T00:53:48;8.60;;;4.30;;
36241;SDS011;22283;42.748;12.732;2023-04-30T00:58:48;7.83;;;4.03;;
36241;SDS011;22283;42.748;12.732;2023-04-30T01:03:50;9.07;;;4.47;;
36241;SDS011;22283;42.748;12.732;2023-04-30T01:08:51;8.15;;;4.57;;
36241;SDS011;22283;42.748;12.732;2023-04-30T01:19:19;7.85;;;4.60;;
36241;SDS011;22283;42.748;12.732;2023-04-30T01:30:13;9.63;;;6.28;;
36241;SDS011;22283;42.748;12.732;2023-04-30T01:35:16;13.52;;;5.78;;
36241;SDS011;22283;42.748;12.732;2023-04-30T01:40:40;9.77;;;5.20;;
36241;SDS011;22283;42.748;12.732;2023-04-30T01:50:57;11.55;;;6.88;;
36241;SDS011;22283;42.748;12.732;2023-04-30T01:56:27;8.00;;;5.93;;
36241;SDS011;22283;42.748;12.732;2023-04-30T02:01:32;9.43;;;5.75;;
36241;SDS011;22283;42.748;12.732;2023-04-30T02:06:33;8.77;;;5.53;;
36241;SDS011;22283;42.748;12.732;2023-04-30T02:11:33;10.30;;;4.93;;
36241;SDS011;22283;42.748;12.732;2023-04-30T02:16:34;9.47;;;7.07;;
36241;SDS011;22283;42.748;12.732;2023-04-30T02:21:34;8.33;;;5.80;;
36241;SDS011;22283;42.748;12.732;2023-04-30T02:26:35;7.57;;;4.77;;
36241;SDS011;22283;42.748;12.732;2023-04-30T02:31:36;8.53;;;5.13;;
36241;SDS011;22283;42.748;12.732;2023-04-30T02:36:36;10.37;;;5.60;;
36241;SDS011;22283;42.748;12.732;2023-04-30T02:41:37;10.40;;;6.37;;
36241;SDS011;22283;42.748;12.732;2023-04-30T02:46:38;9.03;;;5.73;;
36241;SDS011;22283;42.748;12.732;2023-04-30T02:51:38;11.10;;;6.07;;
36241;SDS011;22283;42.748;12.732;2023-04-30T02:56:39;10.33;;;6.03;;
36241;SDS011;22283;42.748;12.732;2023-04-30T03:01:39;13.60;;;7.03;;
36241;SDS011;22283;42.748;12.732;2023-04-30T03:06:40;15.57;;;6.30;;
36241;SDS011;22283;42.748;12.732;2023-04-30T03:11:41;10.17;;;5.13;;
36241;SDS011;22283;42.748;12.732;2023-04-30T03:16:41;8.40;;;4.37;;
36241;SDS011;22283;42.748;12.732;2023-04-30T03:21:42;6.97;;;4.07;;
36241;SDS011;22283;42.748;12.732;2023-04-30T03:26:43;7.67;;;4.63;;
36241;SDS011;22283;42.748;12.732;2023-04-30T03:31:44;8.00;;;4.30;;
36241;SDS011;22283;42.748;12.732;2023-04-30T03:36:45;10.40;;;4.40;;
36241;SDS011;22283;42.748;12.732;2023-04-30T03:41:45;11.50;;;5.07;;
36241;SDS011;22283;42.748;12.732;2023-04-30T03:46:46;8.73;;;4.70;;
36241;SDS011;22283;42.748;12.732;2023-04-30T03:51:47;9.70;;;4.60;;
36241;SDS011;22283;42.748;12.732;2023-04-30T03:56:47;6.90;;;4.33;;
36241;SDS011;22283;42.748;12.732;2023-04-30T04:01:48;7.43;;;4.17;;
36241;SDS011;22283;42.748;12.732;2023-04-30T04:06:49;6.83;;;4.47;;
36241;SDS011;22283;42.748;12.732;2023-04-30T04:11:51;6.50;;;4.30;;
36241;SDS011;22283;42.748;12.732;2023-04-30T04:16:52;10.27;;;4.80;;
36241;SDS011;22283;42.748;12.732;2023-04-30T04:21:52;7.83;;;4.80;;
36241;SDS011;22283;42.748;12.732;2023-04-30T04:31:55;6.93;;;4.97;;
36241;SDS011;22283;42.748;12.732;2023-04-30T04:36:56;10.93;;;6.00;;
36241;SDS011;22283;42.748;12.732;2023-04-30T04:41:58;7.60;;;5.60;;
36241;SDS011;22283;42.748;12.732;2023-04-30T04:46:59;13.73;;;5.97;;
36241;SDS011;22283;42.748;12.732;2023-04-30T04:52:00;8.50;;;6.07;;
36241;SDS011;22283;42.748;12.732;2023-04-30T04:57:01;7.65;;;4.20;;
36241;SDS011;22283;42.748;12.732;2023-04-30T05:02:02;8.18;;;4.53;;
36241;SDS011;22283;42.748;12.732;2023-04-30T05:07:02;6.27;;;4.03;;
36241;SDS011;22283;42.748;12.732;2023-04-30T05:12:03;6.27;;;3.37;;
36241;SDS011;22283;42.748;12.732;2023-04-30T05:17:05;7.75;;;3.95;;
36241;SDS011;22283;42.748;12.732;2023-04-30T05:22:06;6.40;;;4.38;;
36241;SDS011;22283;42.748;12.732;2023-04-30T05:27:07;10.00;;;5.13;;
36241;SDS011;22283;42.748;12.732;2023-04-30T05:32:08;9.13;;;5.50;;
36241;SDS011;22283;42.748;12.732;2023-04-30T05:37:08;17.60;;;9.73;;
36241;SDS011;22283;42.748;12.732;2023-04-30T05:42:09;24.43;;;15.57;;
36241;SDS011;22283;42.748;12.732;2023-04-30T05:47:10;15.90;;;10.10;;
36241;SDS011;22283;42.748;12.732;2023-04-30T05:52:10;10.90;;;6.23;;
36241;SDS011;22283;42.748;12.732;2023-04-30T05:57:11;9.33;;;5.10;;
36241;SDS011;22283;42.748;12.732;2023-04-30T06:02:12;8.53;;;4.30;;
36241;SDS011;22283;42.748;12.732;2023-04-30T06:07:12;8.70;;;5.27;;
36241;SDS011;22283;42.748;12.732;2023-04-30T06:12:13;11.33;;;6.10;;
36241;SDS011;22283;42.748;12.732;2023-04-30T06:17:14;14.67;;;5.17;;
36241;SDS011;22283;42.748;12.732;2023-04-30T06:22:15;14.13;;;6.32;;
36241;SDS011;22283;42.748;12.732;2023-04-30T06:27:16;10.47;;;4.97;;
36241;SDS011;22283;42.748;12.732;2023-04-30T06:32:16;7.53;;;5.13;;
36241;SDS011;22283;42.748;12.732;2023-04-30T06:37:17;7.37;;;4.90;;
36241;SDS011;22283;42.748;12.732;2023-04-30T06:42:18;7.78;;;4.18;;
36241;SDS011;22283;42.748;12.732;2023-04-30T06:47:18;6.90;;;4.37;;
36241;SDS011;22283;42.748;12.732;2023-04-30T06:52:19;6.57;;;5.00;;
36241;SDS011;22283;42.748;12.732;2023-04-30T06:57:19;9.15;;;5.55;;
36241;SDS011;22283;42.748;12.732;2023-04-30T07:02:20;12.80;;;4.90;;
36241;SDS011;22283;42.748;12.732;2023-04-30T07:07:21;12.77;;;5.18;;
36241;SDS011;22283;42.748;12.732;2023-04-30T07:12:22;11.88;;;4.85;;
36241;SDS011;22283;42.748;12.732;2023-04-30T07:17:23;9.77;;;5.45;;
36241;SDS011;22283;42.748;12.732;2023-04-30T07:22:24;9.73;;;5.05;;
36241;SDS011;22283;42.748;12.732;2023-04-30T07:27:25;17.48;;;5.40;;
36241;SDS011;22283;42.748;12.732;2023-04-30T07:32:26;6.65;;;3.70;;
36241;SDS011;22283;42.748;12.732;2023-04-30T07:37:27;7.28;;;3.75;;
36241;SDS011;22283;42.748;12.732;2023-04-30T07:42:27;5.75;;;3.13;;
36241;SDS011;22283;42.748;12.732;2023-04-30T07:47:28;8.27;;;4.03;;
36241;SDS011;22283;42.748;12.732;2023-04-30T07:52:29;6.03;;;3.40;;
36241;SDS011;22283;42.748;12.732;2023-04-30T07:57:30;6.03;;;3.60;;
36241;SDS011;22283;42.748;12.732;2023-04-30T08:02:31;4.68;;;3.15;;
36241;SDS011;22283;42.748;12.732;2023-04-30T08:07:32;11.05;;;3.95;;
36241;SDS011;22283;42.748;12.732;2023-04-30T08:12:34;14.07;;;6.15;;
36241;SDS011;22283;42.748;12.732;2023-04-30T08:17:36;11.20;;;6.00;;
36241;SDS011;22283;42.748;12.732;2023-04-30T08:22:37;9.70;;;5.07;;
36241;SDS011;22283;42.748;12.732;2023-04-30T08:27:38;9.55;;;5.22;;
36241;SDS011;22283;42.748;12.732;2023-04-30T08:32:38;6.47;;;4.22;;
36241;SDS011;22283;42.748;12.732;2023-04-30T08:42:40;7.95;;;4.20;;
36241;SDS011;22283;42.748;12.732;2023-04-30T08:47:53;8.05;;;4.03;;
36241;SDS011;22283;42.748;12.732;2023-04-30T08:52:57;7.65;;;4.05;;
36241;SDS011;22283;42.748;12.732;2023-04-30T08:57:59;8.48;;;4.45;;
36241;SDS011;22283;42.748;12.732;2023-04-30T09:08:00;8.63;;;4.40;;
36241;SDS011;22283;42.748;12.732;2023-04-30T09:18:09;7.80;;;4.18;;
36241;SDS011;22283;42.748;12.732;2023-04-30T09:23:12;8.45;;;3.63;;
36241;SDS011;22283;42.748;12.732;2023-04-30T09:28:13;14.02;;;3.78;;
36241;SDS011;22283;42.748;12.732;2023-04-30T09:33:13;6.95;;;3.70;;
36241;SDS011;22283;42.748;12.732;2023-04-30T09:38:24;6.93;;;3.85;;
36241;SDS011;22283;42.748;12.732;2023-04-30T09:43:27;10.70;;;4.00;;
36241;SDS011;22283;42.748;12.732;2023-04-30T09:48:31;8.55;;;4.10;;
36241;SDS011;22283;42.748;12.732;2023-04-30T09:53:32;8.48;;;3.45;;
36241;SDS011;22283;42.748;12.732;2023-04-30T09:58:37;6.07;;;3.53;;
36241;SDS011;22283;42.748;12.732;2023-04-30T10:03:39;5.50;;;3.33;;
36241;SDS011;22283;42.748;12.732;2023-04-30T10:08:50;7.55;;;3.92;;
36241;SDS011;22283;42.748;12.732;2023-04-30T10:13:54;5.85;;;3.58;;
36241;SDS011;22283;42.748;12.732;2023-04-30T10:18:55;5.80;;;3.70;;
36241;SDS011;22283;42.748;12.732;2023-04-30T10:24:00;14.73;;;4.20;;
36241;SDS011;22283;42.748;12.732;2023-04-30T10:29:03;5.72;;;3.47;;
36241;SDS011;22283;42.748;12.732;2023-04-30T10:39:32;5.82;;;3.05;;
36241;SDS011;22283;42.748;12.732;2023-04-30T10:44:37;5.75;;;3.28;;
36241;SDS011;22283;42.748;12.732;2023-04-30T10:49:38;8.82;;;5.93;;
36241;SDS011;22283;42.748;12.732;2023-04-30T10:54:48;10.52;;;3.40;;
36241;SDS011;22283;42.748;12.732;2023-04-30T11:05:09;4.90;;;3.13;;
36241;SDS011;22283;42.748;12.732;2023-04-30T11:10:11;8.57;;;2.93;;
36241;SDS011;22283;42.748;12.732;2023-04-30T11:15:14;5.90;;;3.40;;
36241;SDS011;22283;42.748;12.732;2023-04-30T11:20:20;5.20;;;2.95;;
36241;SDS011;22283;42.748;12.732;2023-04-30T11:25:23;4.78;;;3.20;;
36241;SDS011;22283;42.748;12.732;2023-04-30T11:30:23;7.13;;;2.67;;
36241;SDS011;22283;42.748;12.732;2023-04-30T11:35:24;5.82;;;2.80;;
36241;SDS011;22283;42.748;12.732;2023-04-30T11:40:25;3.45;;;2.25;;
36241;SDS011;22283;42.748;12.732;2023-04-30T11:45:26;4.30;;;2.17;;
36241;SDS011;22283;42.748;12.732;2023-04-30T11:50:31;5.60;;;2.72;;
36241;SDS011;22283;42.748;12.732;2023-04-30T11:55:33;5.80;;;2.70;;
36241;SDS011;22283;42.748;12.732;2023-04-30T12:05:39;4.45;;;2.78;;
36241;SDS011;22283;42.748;12.732;2023-04-30T12:10:40;6.43;;;2.85;;
36241;SDS011;22283;42.748;12.732;2023-04-30T12:20:41;5.65;;;2.70;;
36241;SDS011;22283;42.748;12.732;2023-04-30T12:25:42;5.63;;;2.55;;
36241;SDS011;22283;42.748;12.732;2023-04-30T12:35:44;3.15;;;1.95;;
36241;SDS011;22283;42.748;12.732;2023-04-30T12:40:45;3.75;;;1.30;;
36241;SDS011;22283;42.748;12.732;2023-04-30T12:45:50;5.03;;;1.50;;
36241;SDS011;22283;42.748;12.732;2023-04-30T12:56:06;5.15;;;2.20;;
36241;SDS011;22283;42.748;12.732;2023-04-30T13:01:12;5.35;;;2.72;;
36241;SDS011;22283;42.748;12.732;2023-04-30T13:06:15;7.38;;;2.15;;
36241;SDS011;22283;42.748;12.732;2023-04-30T13:11:17;5.40;;;2.35;;
36241;SDS011;22283;42.748;12.732;2023-04-30T13:21:18;6.93;;;2.97;;
36241;SDS011;22283;42.748;12.732;2023-04-30T13:26:20;7.05;;;2.60;;
36241;SDS011;22283;42.748;12.732;2023-04-30T13:31:22;6.10;;;2.70;;
36241;SDS011;22283;42.748;12.732;2023-04-30T13:41:23;11.45;;;3.17;;
36241;SDS011;22283;42.748;12.732;2023-04-30T13:46:25;8.02;;;2.75;;
36241;SDS011;22283;42.748;12.732;2023-04-30T13:56:27;3.83;;;1.13;;
36241;SDS011;22283;42.748;12.732;2023-04-30T14:01:28;5.20;;;0.80;;
36241;SDS011;22283;42.748;12.732;2023-04-30T14:11:29;2.47;;;0.98;;
36241;SDS011;22283;42.748;12.732;2023-04-30T14:21:31;1.65;;;1.00;;
36241;SDS011;22283;42.748;12.732;2023-04-30T14:26:32;1.45;;;0.80;;
36241;SDS011;22283;42.748;12.732;2023-04-30T14:36:33;2.95;;;1.70;;
36241;SDS011;22283;42.748;12.732;2023-04-30T14:41:35;4.22;;;2.88;;
36241;SDS011;22283;42.748;12.732;2023-04-30T14:46:36;5.13;;;3.53;;
36241;SDS011;22283;42.748;12.732;2023-04-30T14:51:37;7.68;;;4.32;;
36241;SDS011;22283;42.748;12.732;2023-04-30T14:56:38;7.93;;;4.57;;
36241;SDS011;22283;42.748;12.732;2023-04-30T15:01:38;6.45;;;3.85;;
36241;SDS011;22283;42.748;12.732;2023-04-30T15:06:39;7.03;;;3.80;;
36241;SDS011;22283;42.748;12.732;2023-04-30T15:11:39;9.00;;;4.20;;
36241;SDS011;22283;42.748;12.732;2023-04-30T15:16:40;9.10;;;3.73;;
36241;SDS011;22283;42.748;12.732;2023-04-30T15:21:41;11.57;;;3.70;;
36241;SDS011;22283;42.748;12.732;2023-04-30T15:26:41;9.70;;;3.30;;
36241;SDS011;22283;42.748;12.732;2023-04-30T15:31:42;7.38;;;3.30;;
36241;SDS011;22283;42.748;12.732;2023-04-30T15:36:43;6.63;;;2.92;;
36241;SDS011;22283;42.748;12.732;2023-04-30T15:41:43;6.03;;;2.88;;
36241;SDS011;22283;42.748;12.732;2023-04-30T15:51:44;8.50;;;3.33;;
36241;SDS011;22283;42.748;12.732;2023-04-30T15:56:46;4.43;;;2.40;;
36241;SDS011;22283;42.748;12.732;2023-04-30T16:01:47;7.95;;;2.42;;
36241;SDS011;22283;42.748;12.732;2023-04-30T16:06:47;5.82;;;2.72;;
36241;SDS011;22283;42.748;12.732;2023-04-30T16:11:49;6.05;;;3.03;;
36241;SDS011;22283;42.748;12.732;2023-04-30T16:16:50;5.20;;;2.63;;
36241;SDS011;22283;42.748;12.732;2023-04-30T16:21:51;7.43;;;3.10;;
36241;SDS011;22283;42.748;12.732;2023-04-30T16:26:52;4.50;;;2.63;;
36241;SDS011;22283;42.748;12.732;2023-04-30T16:31:53;10.05;;;2.80;;
36241;SDS011;22283;42.748;12.732;2023-04-30T16:36:53;6.22;;;2.80;;
36241;SDS011;22283;42.748;12.732;2023-04-30T16:41:54;6.88;;;2.97;;
36241;SDS011;22283;42.748;12.732;2023-04-30T16:46:55;8.60;;;3.00;;
36241;SDS011;22283;42.748;12.732;2023-04-30T16:51:58;7.45;;;3.20;;
36241;SDS011;22283;42.748;12.732;2023-04-30T16:56:59;5.90;;;3.38;;
36241;SDS011;22283;42.748;12.732;2023-04-30T17:01:59;7.75;;;3.28;;
36241;SDS011;22283;42.748;12.732;2023-04-30T17:07:01;7.32;;;3.20;;
36241;SDS011;22283;42.748;12.732;2023-04-30T17:17:04;5.35;;;3.45;;
36241;SDS011;22283;42.748;12.732;2023-04-30T17:22:05;5.18;;;2.83;;
36241;SDS011;22283;42.748;12.732;2023-04-30T17:27:06;10.35;;;3.00;;
36241;SDS011;22283;42.748;12.732;2023-04-30T17:32:07;8.88;;;3.58;;
36241;SDS011;22283;42.748;12.732;2023-04-30T17:37:09;7.28;;;4.25;;
36241;SDS011;22283;42.748;12.732;2023-04-30T17:42:09;5.30;;;3.50;;
36241;SDS011;22283;42.748;12.732;2023-04-30T17:47:12;8.18;;;4.38;;
36241;SDS011;22283;42.748;12.732;2023-04-30T17:52:13;8.95;;;4.30;;
36241;SDS011;22283;42.748;12.732;2023-04-30T17:57:13;10.27;;;5.37;;
36241;SDS011;22283;42.748;12.732;2023-04-30T18:02:14;11.77;;;5.13;;
36241;SDS011;22283;42.748;12.732;2023-04-30T18:07:15;10.00;;;4.82;;
36241;SDS011;22283;42.748;12.732;2023-04-30T18:12:16;10.53;;;5.50;;
36241;SDS011;22283;42.748;12.732;2023-04-30T18:17:17;17.05;;;6.38;;
36241;SDS011;22283;42.748;12.732;2023-04-30T18:22:17;11.53;;;6.73;;
36241;SDS011;22283;42.748;12.732;2023-04-30T18:27:19;15.65;;;7.55;;
36241;SDS011;22283;42.748;12.732;2023-04-30T18:32:20;13.85;;;7.45;;
36241;SDS011;22283;42.748;12.732;2023-04-30T18:37:20;24.02;;;11.32;;
36241;SDS011;22283;42.748;12.732;2023-04-30T18:42:22;36.30;;;14.27;;
36241;SDS011;22283;42.748;12.732;2023-04-30T18:47:23;25.90;;;13.45;;
36241;SDS011;22283;42.748;12.732;2023-04-30T18:52:25;12.80;;;6.65;;
36241;SDS011;22283;42.748;12.732;2023-04-30T18:57:25;14.50;;;6.90;;
36241;SDS011;22283;42.748;12.732;2023-04-30T19:02:26;10.83;;;6.03;;
36241;SDS011;22283;42.748;12.732;2023-04-30T19:07:27;9.10;;;6.05;;
36241;SDS011;22283;42.748;12.732;2023-04-30T19:12:27;13.80;;;7.30;;
36241;SDS011;22283;42.748;12.732;2023-04-30T19:17:28;9.00;;;6.53;;
36241;SDS011;22283;42.748;12.732;2023-04-30T19:22:29;10.07;;;5.63;;
36241;SDS011;22283;42.748;12.732;2023-04-30T19:27:29;13.70;;;5.80;;
36241;SDS011;22283;42.748;12.732;2023-04-30T19:32:30;10.20;;;5.57;;
36241;SDS011;22283;42.748;12.732;2023-04-30T19:37:31;12.87;;;5.63;;
36241;SDS011;22283;42.748;12.732;2023-04-30T19:42:32;12.47;;;5.97;;
36241;SDS011;22283;42.748;12.732;2023-04-30T19:47:33;9.15;;;4.68;;
36241;SDS011;22283;42.748;12.732;2023-04-30T19:52:33;12.63;;;5.97;;
36241;SDS011;22283;42.748;12.732;2023-04-30T19:57:34;18.73;;;6.93;;
36241;SDS011;22283;42.748;12.732;2023-04-30T20:02:35;14.00;;;6.65;;
36241;SDS011;22283;42.748;12.732;2023-04-30T20:07:36;8.47;;;5.67;;
36241;SDS011;22283;42.748;12.732;2023-04-30T20:12:36;8.00;;;4.90;;
36241;SDS011;22283;42.748;12.732;2023-04-30T20:17:37;8.18;;;4.53;;
36241;SDS011;22283;42.748;12.732;2023-04-30T20:22:38;12.60;;;6.93;;
36241;SDS011;22283;42.748;12.732;2023-04-30T20:27:38;12.77;;;7.13;;
36241;SDS011;22283;42.748;12.732;2023-04-30T20:32:40;12.63;;;6.88;;
36241;SDS011;22283;42.748;12.732;2023-04-30T20:37:40;7.27;;;4.73;;
36241;SDS011;22283;42.748;12.732;2023-04-30T20:42:41;10.83;;;5.90;;
36241;SDS011;22283;42.748;12.732;2023-04-30T20:47:41;13.10;;;5.30;;
36241;SDS011;22283;42.748;12.732;2023-04-30T20:52:42;8.87;;;4.30;;
36241;SDS011;22283;42.748;12.732;2023-04-30T20:57:43;12.13;;;4.00;;
36241;SDS011;22283;42.748;12.732;2023-04-30T21:02:44;6.97;;;4.23;;
36241;SDS011;22283;42.748;12.732;2023-04-30T21:07:44;7.53;;;4.43;;
36241;SDS011;22283;42.748;12.732;2023-04-30T21:12:45;9.33;;;5.00;;
36241;SDS011;22283;42.748;12.732;2023-04-30T21:17:45;11.80;;;4.30;;
36241;SDS011;22283;42.748;12.732;2023-04-30T21:27:48;12.10;;;4.07;;
36241;SDS011;22283;42.748;12.732;2023-04-30T21:32:49;6.93;;;4.27;;
36241;SDS011;22283;42.748;12.732;2023-04-30T21:37:49;15.17;;;4.87;;
36241;SDS011;22283;42.748;12.732;2023-04-30T21:42:50;5.70;;;4.50;;
36241;SDS011;22283;42.748;12.732;2023-04-30T21:47:51;5.50;;;4.45;;
36241;SDS011;22283;42.748;12.732;2023-04-30T21:52:52;6.40;;;4.50;;
36241;SDS011;22283;42.748;12.732;2023-04-30T21:57:53;8.10;;;4.17;;
36241;SDS011;22283;42.748;12.732;2023-04-30T22:02:53;9.57;;;4.50;;
36241;SDS011;22283;42.748;12.732;2023-04-30T22:07:54;5.90;;;3.72;;
36241;SDS011;22283;42.748;12.732;2023-04-30T22:12:55;11.23;;;3.90;;
36241;SDS011;22283;42.748;12.732;2023-04-30T22:17:56;5.93;;;3.70;;
36241;SDS011;22283;42.748;12.732;2023-04-30T22:22:56;5.27;;;3.80;;
36241;SDS011;22283;42.748;12.732;2023-04-30T22:27:57;6.57;;;4.10;;
36241;SDS011;22283;42.748;12.732;2023-04-30T22:32:58;7.10;;;3.77;;
36241;SDS011;22283;42.748;12.732;2023-04-30T22:37:59;6.60;;;3.90;;
36241;SDS011;22283;42.748;12.732;2023-04-30T22:43:00;5.53;;;3.35;;
36241;SDS011;22283;42.748;12.732;2023-04-30T22:48:01;5.33;;;3.70;;
36241;SDS011;22283;42.748;12.732;2023-04-30T22:53:02;7.30;;;4.27;;
36241;SDS011;22283;42.748;12.732;2023-04-30T22:58:03;7.63;;;4.13;;
36241;SDS011;22283;42.748;12.732;2023-04-30T23:03:03;5.73;;;3.97;;
36241;SDS011;22283;42.748;12.732;2023-04-30T23:08:04;7.33;;;3.97;;
36241;SDS011;22283;42.748;12.732;2023-04-30T23:13:05;7.80;;;4.20;;
36241;SDS011;22283;42.748;12.732;2023-04-30T23:18:05;6.23;;;3.57;;
36241;SDS011;22283;42.748;12.732;2023-04-30T23:23:06;4.70;;;3.37;;
36241;SDS011;22283;42.748;12.732;2023-04-30T23:28:07;6.07;;;3.73;;
36241;SDS011;22283;42.748;12.732;2023-04-30T23:33:07;6.93;;;3.53;;
36241;SDS011;22283;42.748;12.732;2023-04-30T23:38:08;7.27;;;3.50;;
36241;SDS011;22283;42.748;12.732;2023-04-30T23:43:09;6.37;;;3.40;;
36241;SDS011;22283;42.748;12.732;2023-04-30T23:48:10;7.85;;;3.88;;
36241;SDS011;22283;42.748;12.732;2023-04-30T23:53:11;5.63;;;3.60;;
